createdAt,value
2019-03-26T00:01:44.604Z,4.87
2019-03-26T00:04:14.934Z,5.00
2019-03-26T00:06:45.696Z,4.65
2019-03-26T00:09:35.550Z,5.33
2019-03-26T00:12:05.913Z,5.33
2019-03-26T00:14:36.236Z,5.47
2019-03-26T00:17:06.962Z,6.03
2019-03-26T00:19:37.672Z,5.75
2019-03-26T00:22:08.075Z,6.78
2019-03-26T00:24:39.345Z,6.35
2019-03-26T00:27:10.049Z,6.67
2019-03-26T00:29:40.420Z,7.10
2019-03-26T00:32:11.108Z,7.55
2019-03-26T00:34:41.720Z,7.20
2019-03-26T00:37:12.848Z,7.97
2019-03-26T00:39:43.792Z,8.28
2019-03-26T00:42:14.214Z,7.80
2019-03-26T00:44:45.654Z,8.35
2019-03-26T00:47:16.264Z,7.87
2019-03-26T00:49:46.662Z,9.43
2019-03-26T00:52:17.297Z,8.13
2019-03-26T00:54:47.719Z,8.95
2019-03-26T00:57:18.046Z,9.05
2019-03-26T00:59:48.724Z,8.88
2019-03-26T01:02:19.103Z,8.53
2019-03-26T01:04:49.735Z,8.63
2019-03-26T01:07:20.443Z,8.38
2019-03-26T01:10:13.779Z,9.03
2019-03-26T01:12:44.139Z,8.23
2019-03-26T01:15:14.463Z,8.00
2019-03-26T01:17:44.863Z,8.28
2019-03-26T01:20:15.596Z,7.47
2019-03-26T01:22:46.687Z,8.20
2019-03-26T01:25:17.034Z,8.00
2019-03-26T01:27:47.731Z,7.50
2019-03-26T01:30:18.218Z,7.75
2019-03-26T01:32:48.897Z,7.62
2019-03-26T01:35:19.958Z,8.45
2019-03-26T01:37:51.081Z,7.58
2019-03-26T01:40:21.731Z,8.43
2019-03-26T01:42:52.459Z,7.83
2019-03-26T01:45:23.151Z,7.50
2019-03-26T01:47:53.854Z,7.70
2019-03-26T01:50:24.222Z,7.22
2019-03-26T01:52:54.962Z,8.08
2019-03-26T01:55:25.611Z,8.40
2019-03-26T01:57:56.269Z,8.25
2019-03-26T02:00:26.994Z,7.83
2019-03-26T02:02:58.029Z,7.67
2019-03-26T02:05:28.694Z,7.53
2019-03-26T02:08:00.123Z,7.62
2019-03-26T02:10:30.474Z,6.72
2019-03-26T02:13:01.170Z,7.70
2019-03-26T02:15:32.353Z,7.20
2019-03-26T02:18:02.964Z,8.23
2019-03-26T02:20:33.655Z,8.83
2019-03-26T02:23:04.016Z,8.23
2019-03-26T02:25:34.739Z,8.50
2019-03-26T02:28:05.365Z,8.70
2019-03-26T02:30:35.752Z,7.72
2019-03-26T02:33:06.460Z,7.58
2019-03-26T02:35:37.225Z,7.28
2019-03-26T02:38:07.651Z,8.93
2019-03-26T02:40:38.334Z,8.65
2019-03-26T02:43:08.687Z,7.78
2019-03-26T02:45:39.084Z,8.83
2019-03-26T02:48:10.150Z,9.33
2019-03-26T02:50:40.501Z,7.55
2019-03-26T02:53:10.826Z,8.28
2019-03-26T02:55:41.545Z,9.03
2019-03-26T02:58:11.940Z,7.62
2019-03-26T03:00:42.628Z,8.55
2019-03-26T03:03:13.395Z,9.40
2019-03-26T03:05:43.778Z,9.48
2019-03-26T03:08:14.279Z,8.55
2019-03-26T03:10:44.943Z,8.55
2019-03-26T03:13:15.264Z,8.05
2019-03-26T03:15:46.011Z,8.03
2019-03-26T03:18:16.629Z,9.40
2019-03-26T03:20:48.133Z,8.80
2019-03-26T03:23:18.552Z,7.97
2019-03-26T03:25:49.400Z,9.50
2019-03-26T03:28:19.886Z,9.50
2019-03-26T03:30:50.256Z,8.13
2019-03-26T03:33:20.679Z,7.75
2019-03-26T03:35:52.929Z,8.03
2019-03-26T03:38:23.051Z,7.67
2019-03-26T03:40:53.777Z,7.20
2019-03-26T03:43:24.106Z,7.30
2019-03-26T03:45:55.245Z,7.62
2019-03-26T03:48:25.623Z,7.25
2019-03-26T03:50:56.635Z,7.17
2019-03-26T03:53:26.981Z,7.30
2019-03-26T03:55:57.339Z,7.33
2019-03-26T03:58:27.706Z,6.10
2019-03-26T04:00:58.030Z,7.25
2019-03-26T04:03:28.433Z,6.42
2019-03-26T04:06:08.888Z,6.65
2019-03-26T04:08:32.374Z,7.70
2019-03-26T04:11:03.203Z,7.90
2019-03-26T04:13:33.853Z,6.65
2019-03-26T04:16:04.889Z,6.90
2019-03-26T04:18:35.482Z,7.22
2019-03-26T04:21:05.862Z,6.00
2019-03-26T04:23:37.292Z,5.95
2019-03-26T04:26:08.381Z,6.62
2019-03-26T04:28:39.619Z,7.03
2019-03-26T04:31:10.272Z,5.55
2019-03-26T04:33:40.585Z,6.37
2019-03-26T04:36:24.511Z,6.20
2019-03-26T04:38:43.756Z,6.50
2019-03-26T04:41:14.412Z,6.78
2019-03-26T04:43:44.790Z,6.25
2019-03-26T04:46:15.279Z,6.90
2019-03-26T04:48:46.316Z,6.45
2019-03-26T04:51:17.240Z,7.20
2019-03-26T04:53:47.889Z,6.95
2019-03-26T04:56:18.533Z,7.15
2019-03-26T04:58:49.641Z,6.80
2019-03-26T05:01:19.985Z,7.03
2019-03-26T05:03:50.623Z,6.53
2019-03-26T05:06:21.612Z,7.50
2019-03-26T05:08:51.911Z,7.10
2019-03-26T05:11:22.285Z,7.67
2019-03-26T05:13:53.069Z,7.35
2019-03-26T05:16:23.520Z,7.53
2019-03-26T05:18:54.291Z,7.65
2019-03-26T05:21:25.276Z,7.45
2019-03-26T05:23:56.029Z,6.78
2019-03-26T05:26:26.748Z,7.30
2019-03-26T05:28:57.087Z,8.30
2019-03-26T05:31:27.531Z,7.80
2019-03-26T05:33:58.263Z,8.58
2019-03-26T05:36:28.931Z,9.85
2019-03-26T05:38:59.919Z,9.88
2019-03-26T05:41:30.622Z,8.83
2019-03-26T05:44:01.267Z,10.13
2019-03-26T05:46:31.596Z,8.88
2019-03-26T05:49:01.948Z,11.90
2019-03-26T05:51:32.692Z,8.95
2019-03-26T05:54:03.747Z,9.65
2019-03-26T05:56:34.127Z,10.23
2019-03-26T05:59:04.589Z,9.13
2019-03-26T06:01:35.211Z,9.20
2019-03-26T06:04:05.866Z,9.48
2019-03-26T06:06:36.220Z,12.40
2019-03-26T06:09:06.771Z,12.10
2019-03-26T06:11:37.826Z,12.10
2019-03-26T06:14:08.802Z,10.48
2019-03-26T06:16:39.165Z,11.40
2019-03-26T06:19:09.504Z,11.40
2019-03-26T06:21:40.162Z,13.70
2019-03-26T06:24:10.794Z,12.45
2019-03-26T06:26:41.112Z,9.90
2019-03-26T06:29:11.463Z,9.00
2019-03-26T06:31:41.850Z,8.90
2019-03-26T06:34:12.236Z,9.90
2019-03-26T06:36:42.922Z,11.05
2019-03-26T06:39:14.049Z,9.38
2019-03-26T06:41:45.128Z,8.73
2019-03-26T06:44:15.477Z,8.58
2019-03-26T06:46:46.495Z,8.78
2019-03-26T06:49:17.559Z,8.93
2019-03-26T06:51:48.192Z,9.30
2019-03-26T06:54:18.782Z,9.28
2019-03-26T06:56:49.373Z,10.32
2019-03-26T06:59:19.734Z,12.53
2019-03-26T07:01:50.095Z,10.10
2019-03-26T07:04:20.576Z,9.53
2019-03-26T07:06:51.292Z,7.60
2019-03-26T07:09:21.678Z,7.15
2019-03-26T07:11:52.045Z,6.58
2019-03-26T07:14:22.770Z,6.08
2019-03-26T07:16:53.514Z,7.55
2019-03-26T07:19:24.210Z,7.00
2019-03-26T07:21:54.939Z,6.20
2019-03-26T07:24:25.379Z,5.25
2019-03-26T07:26:55.739Z,5.28
2019-03-26T07:29:26.366Z,7.78
2019-03-26T07:31:56.743Z,5.92
2019-03-26T07:34:27.491Z,5.10
2019-03-26T07:36:58.485Z,4.80
2019-03-26T07:39:28.879Z,5.60
2019-03-26T07:41:59.231Z,6.45
2019-03-26T07:44:29.581Z,5.35
2019-03-26T07:47:00.314Z,5.25
2019-03-26T07:49:31.497Z,5.75
2019-03-26T07:52:02.336Z,5.62
2019-03-26T07:54:32.927Z,4.85
2019-03-26T07:57:03.364Z,5.28
2019-03-26T07:59:34.075Z,5.42
2019-03-26T08:02:04.709Z,4.17
2019-03-26T08:04:35.448Z,4.70
2019-03-26T08:07:05.797Z,3.60
2019-03-26T08:09:37.154Z,5.20
2019-03-26T08:12:08.366Z,3.47
2019-03-26T08:14:39.028Z,4.25
2019-03-26T08:17:10.007Z,4.47
2019-03-26T08:19:40.693Z,5.00
2019-03-26T08:22:11.133Z,3.95
2019-03-26T08:24:42.249Z,3.67
2019-03-26T08:27:12.941Z,4.65
2019-03-26T08:29:43.294Z,4.10
2019-03-26T08:32:14.360Z,3.85
2019-03-26T08:34:46.710Z,3.60
2019-03-26T08:37:17.249Z,3.20
2019-03-26T08:39:47.622Z,3.95
2019-03-26T08:42:18.498Z,2.75
2019-03-26T08:44:49.194Z,2.40
2019-03-26T08:47:19.892Z,3.92
2019-03-26T08:49:50.289Z,2.55
2019-03-26T08:52:20.727Z,2.37
2019-03-26T08:54:51.078Z,1.98
2019-03-26T08:57:21.911Z,2.60
2019-03-26T08:59:53.082Z,3.87
2019-03-26T09:02:23.437Z,2.37
2019-03-26T09:04:53.791Z,2.85
2019-03-26T09:07:24.163Z,4.70
2019-03-26T09:09:54.894Z,3.67
2019-03-26T09:12:25.623Z,2.45
2019-03-26T09:14:55.978Z,1.92
2019-03-26T09:17:26.338Z,2.55
2019-03-26T09:19:56.702Z,2.60
2019-03-26T09:22:27.425Z,2.90
2019-03-26T09:24:58.192Z,2.77
2019-03-26T09:27:28.581Z,2.80
2019-03-26T09:29:59.001Z,3.10
2019-03-26T09:32:29.675Z,3.00
2019-03-26T09:35:00.847Z,4.70
2019-03-26T09:37:31.274Z,2.55
2019-03-26T09:40:02.407Z,3.95
2019-03-26T09:42:32.762Z,3.33
2019-03-26T09:45:04.149Z,2.00
2019-03-26T09:47:34.582Z,3.20
2019-03-26T09:50:08.513Z,2.25
2019-03-26T09:52:38.982Z,2.10
2019-03-26T09:55:09.744Z,1.80
2019-03-26T09:57:40.122Z,1.00
2019-03-26T10:00:12.381Z,2.20
2019-03-26T10:02:43.548Z,1.75
2019-03-26T10:05:14.046Z,1.30
2019-03-26T10:07:44.397Z,2.42
2019-03-26T10:10:15.176Z,3.00
2019-03-26T10:12:45.893Z,2.10
2019-03-26T10:15:16.480Z,2.08
2019-03-26T10:17:47.111Z,1.87
2019-03-26T10:20:17.468Z,2.15
2019-03-26T10:22:47.851Z,2.30
2019-03-26T10:25:18.521Z,2.87
2019-03-26T10:27:49.155Z,2.15
2019-03-26T10:30:34.706Z,1.87
2019-03-26T10:33:05.675Z,2.02
2019-03-26T10:35:36.040Z,1.70
2019-03-26T10:38:06.589Z,1.98
2019-03-26T10:40:39.191Z,2.20
2019-03-26T10:43:09.532Z,1.62
2019-03-26T10:45:40.324Z,1.90
2019-03-26T10:48:10.680Z,2.00
2019-03-26T10:50:41.030Z,1.60
2019-03-26T10:53:11.534Z,1.67
2019-03-26T10:55:42.357Z,1.95
2019-03-26T10:58:12.742Z,2.02
2019-03-26T11:00:43.483Z,2.40
2019-03-26T11:03:14.726Z,2.22
2019-03-26T11:05:45.882Z,1.90
2019-03-26T11:08:16.734Z,1.92
2019-03-26T11:10:47.748Z,2.10
2019-03-26T11:13:19.689Z,1.55
2019-03-26T11:15:50.106Z,2.50
2019-03-26T11:18:20.462Z,2.67
2019-03-26T11:21:01.801Z,1.90
2019-03-26T11:23:23.271Z,2.10
2019-03-26T11:25:53.985Z,1.65
2019-03-26T11:28:25.388Z,2.07
2019-03-26T11:30:56.436Z,2.20
2019-03-26T11:33:27.141Z,1.95
2019-03-26T11:35:57.500Z,2.87
2019-03-26T11:38:28.179Z,2.10
2019-03-26T11:40:58.541Z,2.72
2019-03-26T11:43:28.896Z,2.10
2019-03-26T11:45:59.796Z,2.55
2019-03-26T11:48:30.203Z,1.77
2019-03-26T11:51:00.560Z,2.12
2019-03-26T11:53:31.778Z,1.95
2019-03-26T11:56:02.647Z,2.40
2019-03-26T11:58:33.272Z,2.98
2019-03-26T12:01:04.421Z,1.87
2019-03-26T12:03:35.027Z,2.47
2019-03-26T12:06:05.392Z,1.90
2019-03-26T12:08:35.798Z,2.45
2019-03-26T12:11:06.149Z,2.00
2019-03-26T12:13:36.501Z,2.50
2019-03-26T12:16:26.993Z,3.70
2019-03-26T12:18:57.348Z,2.10
2019-03-26T12:21:27.792Z,2.45
2019-03-26T12:23:58.270Z,3.15
2019-03-26T12:26:28.655Z,4.30
2019-03-26T12:28:59.299Z,2.77
2019-03-26T12:31:29.656Z,3.45
2019-03-26T12:34:00.061Z,3.83
2019-03-26T12:36:39.984Z,5.05
2019-03-26T12:39:02.824Z,4.55
2019-03-26T12:41:33.169Z,4.00
2019-03-26T12:44:03.556Z,3.20
2019-03-26T12:46:34.160Z,3.35
2019-03-26T12:49:05.050Z,3.50
2019-03-26T12:51:35.708Z,2.87
2019-03-26T12:54:06.106Z,3.50
2019-03-26T12:56:36.820Z,3.92
2019-03-26T12:59:07.590Z,5.78
2019-03-26T13:01:37.939Z,3.30
2019-03-26T13:04:12.764Z,3.50
2019-03-26T13:06:40.648Z,3.92
2019-03-26T13:09:11.598Z,5.90
2019-03-26T13:11:42.359Z,4.45
2019-03-26T13:14:12.735Z,4.05
2019-03-26T13:16:43.430Z,4.37
2019-03-26T13:19:14.720Z,3.35
2019-03-26T13:21:45.421Z,3.85
2019-03-26T13:24:16.265Z,3.37
2019-03-26T13:26:48.976Z,3.62
2019-03-26T13:29:19.013Z,1.77
2019-03-26T13:31:49.663Z,2.60
2019-03-26T13:34:20.382Z,2.70
2019-03-26T13:36:51.137Z,2.55
2019-03-26T13:39:21.763Z,1.90
2019-03-26T13:41:52.187Z,2.17
2019-03-26T13:44:22.787Z,2.20
2019-03-26T13:46:54.798Z,3.08
2019-03-26T13:49:25.148Z,2.90
2019-03-26T13:51:55.528Z,1.80
2019-03-26T13:54:26.278Z,1.98
2019-03-26T13:56:56.972Z,1.67
2019-03-26T13:59:27.655Z,1.82
2019-03-26T14:01:57.997Z,1.75
2019-03-26T14:04:28.723Z,1.65
2019-03-26T14:07:02.221Z,2.05
2019-03-26T14:09:33.422Z,1.85
2019-03-26T14:12:03.825Z,1.90
2019-03-26T14:14:34.351Z,2.05
2019-03-26T14:17:05.688Z,1.85
2019-03-26T14:19:36.262Z,2.92
2019-03-26T14:22:06.634Z,1.80
2019-03-26T14:24:36.959Z,1.50
2019-03-26T14:27:07.652Z,2.30
2019-03-26T14:29:38.249Z,1.90
2019-03-26T14:32:08.616Z,3.42
2019-03-26T14:34:39.300Z,3.00
2019-03-26T14:37:09.641Z,3.40
2019-03-26T14:39:40.040Z,1.77
2019-03-26T14:42:10.389Z,5.62
2019-03-26T14:44:41.422Z,2.75
2019-03-26T14:47:12.159Z,2.02
2019-03-26T14:49:42.764Z,2.05
2019-03-26T14:52:13.530Z,2.10
2019-03-26T14:54:44.252Z,1.50
2019-03-26T14:57:14.849Z,1.25
2019-03-26T14:59:45.258Z,2.25
2019-03-26T15:02:15.631Z,1.20
2019-03-26T15:04:46.286Z,1.75
2019-03-26T15:07:17.206Z,2.10
2019-03-26T15:09:47.565Z,3.83
2019-03-26T15:12:18.687Z,3.20
2019-03-26T15:14:49.336Z,3.87
2019-03-26T15:17:19.685Z,4.40
2019-03-26T15:19:50.371Z,3.50
2019-03-26T15:22:21.845Z,3.58
2019-03-26T15:24:52.299Z,3.80
2019-03-26T15:27:23.002Z,2.50
2019-03-26T15:29:53.747Z,2.90
2019-03-26T15:32:24.102Z,2.10
2019-03-26T15:34:54.454Z,2.37
2019-03-26T15:37:25.172Z,1.90
2019-03-26T15:39:55.846Z,2.83
2019-03-26T15:42:26.255Z,2.47
2019-03-26T15:44:56.782Z,1.85
2019-03-26T15:47:27.472Z,2.05
2019-03-26T15:49:57.858Z,2.22
2019-03-26T15:52:28.245Z,2.00
2019-03-26T15:54:58.614Z,3.60
2019-03-26T15:57:28.983Z,1.42
2019-03-26T15:59:59.347Z,1.65
2019-03-26T16:02:49.159Z,1.75
2019-03-26T16:05:19.961Z,1.60
2019-03-26T16:07:50.452Z,1.25
2019-03-26T16:10:21.177Z,1.65
2019-03-26T16:12:51.904Z,2.22
2019-03-26T16:15:22.505Z,2.10
2019-03-26T16:17:52.862Z,1.85
2019-03-26T16:20:23.326Z,1.40
2019-03-26T16:22:54.379Z,1.20
2019-03-26T16:25:25.421Z,2.15
2019-03-26T16:27:57.215Z,1.67
2019-03-26T16:30:30.483Z,33.33
2019-03-26T16:33:00.373Z,27.52
2019-03-26T16:35:31.012Z,14.87
2019-03-26T16:38:04.257Z,2.30
2019-03-26T16:40:34.598Z,1.72
2019-03-26T16:43:04.991Z,2.45
2019-03-26T16:45:35.698Z,2.45
2019-03-26T16:48:06.061Z,1.32
2019-03-26T16:50:36.810Z,2.30
2019-03-26T16:53:07.625Z,1.70
2019-03-26T16:55:38.316Z,1.95
2019-03-26T16:58:08.944Z,2.98
2019-03-26T17:00:39.706Z,2.35
2019-03-26T17:03:10.755Z,2.70
2019-03-26T17:05:41.476Z,2.72
2019-03-26T17:08:12.216Z,3.42
2019-03-26T17:10:42.936Z,2.70
2019-03-26T17:13:13.272Z,6.37
2019-03-26T17:15:44.422Z,4.17
2019-03-26T17:18:14.770Z,2.27
2019-03-26T17:20:45.370Z,4.28
2019-03-26T17:23:16.123Z,3.90
2019-03-26T17:25:46.512Z,2.30
2019-03-26T17:28:16.904Z,2.00
2019-03-26T17:30:47.237Z,2.33
2019-03-26T17:33:17.780Z,1.70
2019-03-26T17:35:48.501Z,1.92
2019-03-26T17:38:18.865Z,2.50
2019-03-26T17:40:49.566Z,2.45
2019-03-26T17:43:20.659Z,2.30
2019-03-26T17:45:51.385Z,1.67
2019-03-26T17:48:21.741Z,2.25
2019-03-26T17:50:52.587Z,1.85
2019-03-26T17:53:23.621Z,1.82
2019-03-26T17:55:54.549Z,2.20
2019-03-26T17:58:24.971Z,1.80
2019-03-26T18:00:55.612Z,1.90
2019-03-26T18:03:27.145Z,1.87
2019-03-26T18:05:57.603Z,1.82
2019-03-26T18:08:28.322Z,2.05
2019-03-26T18:10:59.039Z,2.20
2019-03-26T18:13:30.030Z,2.52
2019-03-26T18:16:00.443Z,2.60
2019-03-26T18:18:31.040Z,2.15
2019-03-26T18:21:01.627Z,2.33
2019-03-26T18:23:32.314Z,2.75
2019-03-26T18:26:02.666Z,5.33
2019-03-26T18:28:33.414Z,6.50
2019-03-26T18:31:03.819Z,8.85
2019-03-26T18:33:34.190Z,3.85
2019-03-26T18:36:04.903Z,2.10
2019-03-26T18:38:35.564Z,2.42
2019-03-26T18:41:06.491Z,4.85
2019-03-26T18:43:36.894Z,4.95
2019-03-26T18:46:07.212Z,5.28
2019-03-26T18:48:37.843Z,3.35
2019-03-26T18:51:08.822Z,4.78
2019-03-26T18:53:39.557Z,2.80
2019-03-26T18:56:10.182Z,2.62
2019-03-26T18:58:40.656Z,2.08
2019-03-26T19:01:11.365Z,2.80
2019-03-26T19:03:41.689Z,2.80
2019-03-26T19:06:12.405Z,2.30
2019-03-26T19:08:43.087Z,3.10
2019-03-26T19:11:13.467Z,3.95
2019-03-26T19:13:44.168Z,2.80
2019-03-26T19:16:14.568Z,2.98
2019-03-26T19:18:44.895Z,3.17
2019-03-26T19:21:15.650Z,3.10
2019-03-26T19:23:46.269Z,3.05
2019-03-26T19:26:16.913Z,2.47
2019-03-26T19:28:47.270Z,3.40
2019-03-26T19:31:17.664Z,2.72
2019-03-26T19:33:48.313Z,3.02
2019-03-26T19:36:18.669Z,3.40
2019-03-26T19:38:49.540Z,3.85
2019-03-26T19:41:20.310Z,3.05
2019-03-26T19:43:50.989Z,3.40
2019-03-26T19:46:21.594Z,2.92
2019-03-26T19:48:52.271Z,2.72
2019-03-26T19:51:22.965Z,2.35
2019-03-26T19:53:53.650Z,2.95
2019-03-26T19:56:24.382Z,2.60
2019-03-26T19:58:55.039Z,3.02
2019-03-26T20:01:25.805Z,3.17
2019-03-26T20:03:56.609Z,2.42
2019-03-26T20:06:27.542Z,2.85
2019-03-26T20:08:57.898Z,3.20
2019-03-26T20:11:28.371Z,2.60
2019-03-26T20:13:59.539Z,3.30
2019-03-26T20:16:41.346Z,3.70
2019-03-26T20:19:02.481Z,2.90
2019-03-26T20:21:32.982Z,3.42
2019-03-26T20:24:03.792Z,3.50
2019-03-26T20:26:34.446Z,3.37
2019-03-26T20:29:04.805Z,3.12
2019-03-26T20:31:35.169Z,4.20
2019-03-26T20:34:06.297Z,2.92
2019-03-26T20:36:36.618Z,2.90
2019-03-26T20:39:08.773Z,2.80
2019-03-26T20:41:39.379Z,3.20
2019-03-26T20:44:09.731Z,3.52
2019-03-26T20:46:40.094Z,2.95
2019-03-26T20:49:11.185Z,3.52
2019-03-26T20:51:41.912Z,3.37
2019-03-26T20:54:12.718Z,7.90
2019-03-26T20:56:43.880Z,4.42
2019-03-26T20:59:14.560Z,6.42
2019-03-26T21:01:45.654Z,5.55
2019-03-26T21:04:16.704Z,4.72
2019-03-26T21:06:47.032Z,6.70
2019-03-26T21:09:17.504Z,4.50
2019-03-26T21:11:47.832Z,4.72
2019-03-26T21:14:18.204Z,3.27
2019-03-26T21:16:49.269Z,5.25
2019-03-26T21:19:19.613Z,5.62
2019-03-26T21:21:52.905Z,5.47
2019-03-26T21:24:22.385Z,5.78
2019-03-26T21:26:52.718Z,4.37
2019-03-26T21:29:23.778Z,3.92
2019-03-26T21:31:54.527Z,4.42
2019-03-26T21:34:30.380Z,3.10
2019-03-26T21:36:57.037Z,4.65
2019-03-26T21:39:27.385Z,3.55
2019-03-26T21:41:57.765Z,3.52
2019-03-26T21:44:28.108Z,4.10
2019-03-26T21:46:58.815Z,4.45
2019-03-26T21:49:29.406Z,2.65
2019-03-26T21:51:59.739Z,3.08
2019-03-26T21:54:30.056Z,3.20
2019-03-26T21:57:00.434Z,3.10
2019-03-26T21:59:31.085Z,2.85
2019-03-26T22:02:01.436Z,2.92
2019-03-26T22:04:32.452Z,2.40
2019-03-26T22:07:03.193Z,3.02
2019-03-26T22:09:33.516Z,3.22
2019-03-26T22:12:03.870Z,2.65
2019-03-26T22:14:34.591Z,3.20
2019-03-26T22:17:05.011Z,2.40
2019-03-26T22:19:35.377Z,2.85
2019-03-26T22:22:06.161Z,3.00
2019-03-26T22:24:36.516Z,3.45
2019-03-26T22:27:07.563Z,3.40
2019-03-26T22:29:37.932Z,2.77
2019-03-26T22:32:08.280Z,3.40
2019-03-26T22:34:39.018Z,3.20
2019-03-26T22:37:09.762Z,2.50
2019-03-26T22:39:40.279Z,3.20
2019-03-26T22:42:10.606Z,3.12
2019-03-26T22:45:00.400Z,2.62
2019-03-26T22:47:30.736Z,3.17
2019-03-26T22:50:01.736Z,3.37
2019-03-26T22:52:32.380Z,3.08
2019-03-26T22:55:02.731Z,2.60
2019-03-26T22:57:33.756Z,3.25
2019-03-26T23:00:18.841Z,3.40
2019-03-26T23:02:49.673Z,2.80
2019-03-26T23:05:20.018Z,3.20
2019-03-26T23:07:51.066Z,2.95
2019-03-26T23:10:21.461Z,3.60
2019-03-26T23:12:51.846Z,3.65
2019-03-26T23:15:25.834Z,3.20
2019-03-26T23:17:56.208Z,3.52
2019-03-26T23:20:26.901Z,3.58
2019-03-26T23:22:57.630Z,3.22
2019-03-26T23:25:28.293Z,2.90
2019-03-26T23:27:58.620Z,3.25
2019-03-26T23:30:29.340Z,3.45
2019-03-26T23:33:00.077Z,2.42
2019-03-26T23:35:30.516Z,3.40
2019-03-26T23:38:01.545Z,2.87
2019-03-26T23:40:31.914Z,3.05
2019-03-26T23:43:02.288Z,4.05
2019-03-26T23:45:33.316Z,3.60
2019-03-26T23:48:03.976Z,3.30
2019-03-26T23:50:34.694Z,3.50
2019-03-26T23:53:05.342Z,3.25
2019-03-26T23:55:35.706Z,2.92
2019-03-26T23:58:06.397Z,2.75
